Tomahawk, WI

6:33 AM CDT on October 31, 2014 (GMT -0500)
Tomahawk | Change Station
CLOSE
Current Station
Airport
Location: Tomahawk,
Elevation: 1486 ft
Nearby Weather Stations
Active Advisory: Special Statement

Elev 1486 ft 45.47 °N, 89.81 °W | Updated 18 minutes ago

Mostly Cloudy
Mostly Cloudy
28 °F
Feels Like 17 °F
N
13
Wind Variable Wind from North
Gusts 16 mph

Today
High -- | Low -- °F
--% Chance of Precip.
Yesterday
High -- | Low -- °F
Precip. -- in
7:36 AM 5:47 PM
First Quarter, 54% visible
Pressure 30.31 in
Visibility 7.0 miles
Clouds Scattered Clouds 1700 ft
Mostly Cloudy 2200 ft
Mostly Cloudy 2800 ft
Windchill 17 °F
Dew Point 23 °F
Humidity 84%
Rainfall 0.00 in
Snow Depth Not available.
UV 0 out of 12
Pollen .10 out of 12
Air Quality Not available.
Flu Activity Not available.
METAR KTKV 311115Z AUTO 36011G14KT 7SM SCT017 BKN022 BKN028 M02/M05 A3031 RMK AO2 T10251049

More Conditions Fewer Conditions

Pressure 30.31 in
Visibility 7.0 miles
Clouds Scattered Clouds 1700 ft
Mostly Cloudy 2200 ft
Mostly Cloudy 2800 ft
Windchill 17 °F
Dew Point 23 °F
Humidity 84%
Rainfall 0.00 in
Snow Depth Not available.
UV 0 out of 12
Pollen .10 out of 12
Air Quality Not available.
Flu Activity Not available.
METAR KTKV 311115Z AUTO 36011G14KT 7SM SCT017 BKN022 BKN028 M02/M05 A3031 RMK AO2 T10251049

More Conditions Fewer Conditions

10-Day Weather Forecast

Almanac

Astronomy

Oct. 31, 2014 Rise Set
Actual Time
Civil Twilight
Nautical Twilight
Astronomical Twilight
Moon
Length of Visible Light
Length of Day
Tomorrow will be .
, % of the Moon is Illuminated

Today's Extremes

State Highs State Lows

Community

WunderPhotos

Upload Photos

1,766,581 photos uploaded!

WunderBlogs® & News

Nearby

Air Quality

  Air Quality AQ Index Pollutant
Not available.

Snow Depth

Station Depth Elevation

Earthquake Activity

City Distance Mag. Time & Date
Minimum magnitude displayed is 2.5.

Coastal Water Temperatures

Place Temperature

Nearby Weather Stations